Cimarron, Colorado
Current Conditions -  °F | °C
As of 3:53 PM on Saturday 22 Nov 2014 (Local Time) from KMTJ Reporting Station
Overcast Overcast  
Wind Chill: 51°   Ceiling: 10000
Heat Index: 51°   Visibility: 10mi
Dew Point: 19°   Wind: 9mph
Humidity: 28%   Direction: 250°WSW
Pressure: 29.87"   Gusts: NA
Location:  38.44°N, 107.56°W
Report Text: KMTJ 222253Z AUTO 25008KT 10SM OVC100 11/M07 A2987 RMK AO2 SLP101 T01061072
Loading
Personal Weather Stations






























Interactive Weather Map New forecast layout! Learn more

10-Day Weather Forecast

Advertisements
Track Severe Weather on mobile